createdAt,value
2017-12-25T00:01:46.106Z,7.30
2017-12-25T00:04:14.557Z,7.60
2017-12-25T00:06:42.039Z,7.00
2017-12-25T00:09:10.247Z,7.60
2017-12-25T00:11:37.682Z,7.83
2017-12-25T00:14:05.162Z,8.17
2017-12-25T00:16:32.598Z,8.77
2017-12-25T00:19:00.038Z,8.80
2017-12-25T00:21:28.242Z,7.93
2017-12-25T00:23:55.696Z,7.77
2017-12-25T00:26:23.122Z,8.07
2017-12-25T00:28:51.335Z,7.47
2017-12-25T00:31:18.766Z,7.60
2017-12-25T00:33:46.207Z,7.93
2017-12-25T00:36:14.410Z,8.70
2017-12-25T00:38:41.866Z,7.70
2017-12-25T00:41:09.312Z,6.40
2017-12-25T00:43:36.738Z,6.80
2017-12-25T00:46:04.952Z,7.27
2017-12-25T00:48:33.331Z,7.43
2017-12-25T00:51:00.788Z,7.70
2017-12-25T00:53:28.225Z,7.90
2017-12-25T00:55:55.671Z,7.73
2017-12-25T00:58:23.872Z,7.70
2017-12-25T01:00:51.314Z,7.50
2017-12-25T01:03:18.747Z,8.43
2017-12-25T01:05:46.957Z,10.30
2017-12-25T01:08:14.411Z,11.97
2017-12-25T01:10:41.849Z,11.87
2017-12-25T01:13:09.286Z,10.67
2017-12-25T01:15:37.506Z,13.93
2017-12-25T01:18:04.954Z,14.03
2017-12-25T01:20:32.398Z,12.60
2017-12-25T01:22:59.834Z,17.10
2017-12-25T01:25:27.292Z,15.23
2017-12-25T01:27:55.498Z,11.70
2017-12-25T01:30:22.950Z,15.70
2017-12-25T01:32:50.389Z,12.73
2017-12-25T01:35:17.833Z,16.57
2017-12-25T01:37:46.041Z,14.10
2017-12-25T01:40:13.755Z,11.50
2017-12-25T01:42:41.190Z,14.00
2017-12-25T01:45:08.650Z,11.73
2017-12-25T01:47:36.098Z,15.33
2017-12-25T01:50:03.555Z,12.27
2017-12-25T01:52:31.001Z,14.70
2017-12-25T01:54:58.444Z,12.00
2017-12-25T01:57:27.775Z,13.30
2017-12-25T01:59:56.664Z,14.30
2017-12-25T02:02:24.191Z,13.67
2017-12-25T02:08:03.834Z,15.30
2017-12-25T02:10:31.280Z,15.00
2017-12-25T02:12:58.714Z,16.83
2017-12-25T02:15:26.164Z,15.67
2017-12-25T02:17:53.605Z,15.60
2017-12-25T02:20:21.047Z,15.83
2017-12-25T02:22:48.515Z,13.63
2017-12-25T02:25:15.966Z,14.20
2017-12-25T02:27:43.427Z,15.30
2017-12-25T02:30:10.875Z,13.53
2017-12-25T02:32:38.332Z,13.10
2017-12-25T02:35:06.119Z,14.73
2017-12-25T02:37:33.554Z,13.83
2017-12-25T02:40:01.002Z,14.50
2017-12-25T02:42:28.454Z,14.60
2017-12-25T02:44:55.903Z,14.50
2017-12-25T02:47:23.359Z,15.47
2017-12-25T02:49:50.800Z,14.67
2017-12-25T02:52:18.255Z,15.23
2017-12-25T02:54:45.715Z,14.47
2017-12-25T02:57:13.170Z,13.87
2017-12-25T02:59:40.623Z,15.90
2017-12-25T03:02:08.078Z,14.63
2017-12-25T03:04:35.534Z,14.73
2017-12-25T03:07:02.990Z,12.80
2017-12-25T03:09:30.451Z,14.60
2017-12-25T03:11:57.901Z,16.20
2017-12-25T03:14:25.365Z,13.83
2017-12-25T03:16:52.818Z,12.03
2017-12-25T03:19:20.257Z,12.50
2017-12-25T03:21:47.709Z,14.10
2017-12-25T03:24:15.153Z,13.63
2017-12-25T03:26:43.367Z,12.50
2017-12-25T03:29:10.827Z,13.57
2017-12-25T03:31:38.275Z,14.00
2017-12-25T03:34:05.724Z,12.17
2017-12-25T03:36:33.173Z,12.07
2017-12-25T03:39:00.625Z,12.93
2017-12-25T03:41:28.062Z,12.87
2017-12-25T03:43:56.278Z,13.93
2017-12-25T03:46:23.722Z,13.80
2017-12-25T03:48:51.183Z,12.53
2017-12-25T03:51:18.636Z,13.83
2017-12-25T03:53:46.094Z,13.17
2017-12-25T03:56:13.550Z,12.57
2017-12-25T03:58:41.007Z,13.00
2017-12-25T04:01:08.468Z,15.03
2017-12-25T04:03:35.922Z,12.70
2017-12-25T04:06:03.375Z,14.60
2017-12-25T04:08:31.856Z,14.27
2017-12-25T04:10:59.307Z,12.90
2017-12-25T04:13:26.788Z,14.40
2017-12-25T04:15:54.234Z,14.73
2017-12-25T04:18:21.691Z,13.63
2017-12-25T04:20:49.148Z,14.03
2017-12-25T04:23:16.612Z,13.63
2017-12-25T04:25:44.055Z,14.67
2017-12-25T04:28:11.520Z,14.47
2017-12-25T04:30:38.955Z,11.33
2017-12-25T04:33:06.418Z,13.47
2017-12-25T04:35:33.855Z,12.40
2017-12-25T04:38:01.302Z,14.57
2017-12-25T04:40:28.755Z,13.60
2017-12-25T04:42:56.203Z,13.60
2017-12-25T04:45:24.422Z,13.63
2017-12-25T04:47:52.008Z,16.10
2017-12-25T04:50:19.458Z,12.53
2017-12-25T04:52:46.918Z,18.00
2017-12-25T04:55:14.374Z,12.63
2017-12-25T04:57:41.828Z,14.67
2017-12-25T05:00:09.291Z,14.00
2017-12-25T05:02:36.741Z,15.03
2017-12-25T05:05:04.213Z,14.50
2017-12-25T05:07:31.657Z,14.60
2017-12-25T05:09:59.119Z,13.80
2017-12-25T05:12:26.579Z,16.03
2017-12-25T05:14:54.035Z,11.20
2017-12-25T05:17:21.482Z,13.50
2017-12-25T05:19:48.934Z,13.47
2017-12-25T05:22:16.386Z,18.43
2017-12-25T05:24:43.846Z,15.17
2017-12-25T05:27:11.287Z,15.60
2017-12-25T05:29:38.746Z,15.33
2017-12-25T05:32:06.198Z,16.70
2017-12-25T05:34:33.667Z,16.27
2017-12-25T05:37:01.127Z,15.03
2017-12-25T05:39:28.587Z,16.47
2017-12-25T05:41:56.038Z,15.37
2017-12-25T05:44:23.491Z,16.30
2017-12-25T05:46:50.951Z,16.20
2017-12-25T05:49:18.402Z,14.10
2017-12-25T05:51:45.855Z,12.80
2017-12-25T05:54:13.314Z,16.77
2017-12-25T05:56:40.775Z,17.60
2017-12-25T05:59:08.227Z,13.03
2017-12-25T06:01:35.683Z,14.37
2017-12-25T06:04:03.975Z,15.07
2017-12-25T06:06:31.419Z,15.27
2017-12-25T06:08:58.870Z,14.27
2017-12-25T06:11:26.330Z,14.93
2017-12-25T06:13:53.814Z,16.50
2017-12-25T06:16:22.039Z,18.00
2017-12-25T06:18:49.479Z,14.30
2017-12-25T06:21:16.937Z,12.77
2017-12-25T06:23:44.395Z,15.30
2017-12-25T06:26:11.846Z,14.60
2017-12-25T06:28:39.303Z,15.60
2017-12-25T06:31:06.771Z,15.00
2017-12-25T06:33:34.987Z,13.23
2017-12-25T06:36:02.430Z,13.80
2017-12-25T06:38:29.879Z,11.40
2017-12-25T06:40:57.332Z,13.30
2017-12-25T06:43:24.796Z,15.60
2017-12-25T06:45:52.252Z,13.63
2017-12-25T06:48:19.695Z,14.00
2017-12-25T06:50:47.151Z,14.33
2017-12-25T06:53:14.606Z,15.40
2017-12-25T06:55:42.062Z,12.07
2017-12-25T06:58:09.506Z,12.70
2017-12-25T07:00:36.964Z,11.97
2017-12-25T07:03:04.407Z,13.97
2017-12-25T07:05:32.634Z,13.20
2017-12-25T07:08:00.865Z,15.30
2017-12-25T07:10:28.310Z,16.50
2017-12-25T07:12:55.767Z,14.90
2017-12-25T07:15:23.198Z,13.70
2017-12-25T07:17:50.648Z,13.63
2017-12-25T07:20:18.861Z,14.03
2017-12-25T07:22:46.329Z,15.63
2017-12-25T07:25:13.785Z,15.10
2017-12-25T07:27:41.255Z,15.60
2017-12-25T07:30:08.710Z,12.70
2017-12-25T07:32:36.173Z,15.37
2017-12-25T07:35:03.627Z,15.07
2017-12-25T07:37:31.083Z,14.43
2017-12-25T07:39:58.539Z,13.20
2017-12-25T07:42:25.995Z,15.63
2017-12-25T07:44:53.435Z,14.40
2017-12-25T07:47:20.895Z,20.87
2017-12-25T07:49:48.349Z,17.43
2017-12-25T07:52:15.809Z,16.53
2017-12-25T07:54:43.257Z,19.40
2017-12-25T07:57:10.715Z,16.00
2017-12-25T07:59:38.172Z,18.00
2017-12-25T08:02:05.614Z,21.80
2017-12-25T08:04:33.071Z,17.23
2017-12-25T08:07:00.529Z,15.60
2017-12-25T08:09:27.979Z,15.20
2017-12-25T08:11:55.450Z,15.67
2017-12-25T08:14:22.898Z,16.10
2017-12-25T08:16:50.353Z,15.87
2017-12-25T08:19:17.795Z,14.87
2017-12-25T08:21:45.244Z,17.37
2017-12-25T08:24:12.712Z,14.90
2017-12-25T08:26:40.168Z,16.27
2017-12-25T08:29:07.851Z,13.43
2017-12-25T08:31:35.410Z,15.60
2017-12-25T08:34:03.008Z,16.53
2017-12-25T08:36:30.540Z,15.50
2017-12-25T08:38:58.776Z,14.43
2017-12-25T08:41:26.305Z,17.70
2017-12-25T08:43:55.271Z,16.53
2017-12-25T08:46:23.560Z,15.60
2017-12-25T08:48:51.788Z,18.20
2017-12-25T08:51:19.254Z,12.87
2017-12-25T08:53:46.711Z,14.17
2017-12-25T08:56:14.165Z,14.80
2017-12-25T08:58:41.657Z,16.40
2017-12-25T09:01:09.886Z,16.63
2017-12-25T09:03:37.342Z,16.10
2017-12-25T09:06:06.931Z,16.40
2017-12-25T09:08:38.354Z,14.60
2017-12-25T09:11:06.565Z,14.53
2017-12-25T09:13:34.014Z,13.47
2017-12-25T09:16:01.496Z,16.07
2017-12-25T09:18:28.951Z,12.37
2017-12-25T09:20:56.398Z,13.53
2017-12-25T09:23:23.865Z,13.77
2017-12-25T09:25:51.331Z,14.10
2017-12-25T09:28:18.788Z,16.50
2017-12-25T09:30:46.268Z,14.33
2017-12-25T09:33:14.490Z,14.07
2017-12-25T09:35:42.187Z,14.93
2017-12-25T09:38:10.536Z,15.00
2017-12-25T09:40:38.000Z,12.87
2017-12-25T09:43:05.434Z,13.30
2017-12-25T09:45:32.886Z,9.33
2017-12-25T09:48:00.327Z,9.97
2017-12-25T09:50:27.775Z,12.90
2017-12-25T09:52:55.224Z,9.50
2017-12-25T09:55:23.462Z,10.83
2017-12-25T09:57:50.910Z,10.17
2017-12-25T10:00:18.366Z,9.40
2017-12-25T10:02:45.799Z,9.50
2017-12-25T10:05:13.258Z,8.27
2017-12-25T10:07:40.717Z,8.00
2017-12-25T10:10:08.168Z,9.37
2017-12-25T10:12:35.601Z,8.30
2017-12-25T10:15:03.046Z,9.03
2017-12-25T10:17:31.254Z,9.90
2017-12-25T10:19:58.707Z,8.70
2017-12-25T10:22:26.149Z,8.90
2017-12-25T10:24:53.590Z,9.23
2017-12-25T10:27:21.042Z,8.73
2017-12-25T10:29:48.492Z,9.47
2017-12-25T10:32:16.715Z,9.07
2017-12-25T10:34:44.172Z,10.00
2017-12-25T10:37:11.613Z,8.93
2017-12-25T10:39:39.076Z,12.07
2017-12-25T10:42:06.531Z,11.47
2017-12-25T10:44:34.000Z,8.40
2017-12-25T10:47:01.454Z,9.43
2017-12-25T10:49:28.907Z,8.13
2017-12-25T10:51:56.362Z,7.17
2017-12-25T10:54:23.807Z,9.83
2017-12-25T10:56:52.019Z,7.27
2017-12-25T10:59:19.475Z,7.70
2017-12-25T11:01:46.919Z,9.53
2017-12-25T11:04:14.423Z,7.43
2017-12-25T11:06:41.816Z,9.07
2017-12-25T11:09:11.032Z,7.67
2017-12-25T11:11:38.537Z,7.63
2017-12-25T11:14:06.059Z,7.47
2017-12-25T11:16:33.583Z,7.70
2017-12-25T11:19:01.081Z,9.03
2017-12-25T11:21:28.547Z,7.37
2017-12-25T11:23:55.990Z,7.77
2017-12-25T11:26:23.434Z,6.47
2017-12-25T11:28:50.883Z,7.40
2017-12-25T11:31:18.327Z,8.10
2017-12-25T11:33:45.772Z,7.20
2017-12-25T11:36:13.247Z,7.13
2017-12-25T11:38:40.698Z,6.37
2017-12-25T11:41:08.164Z,7.57
2017-12-25T11:43:35.615Z,6.70
2017-12-25T11:46:03.075Z,7.63
2017-12-25T11:48:30.528Z,9.00
2017-12-25T11:50:58.000Z,7.90
2017-12-25T11:53:25.449Z,8.20
2017-12-25T11:55:52.906Z,6.80
2017-12-25T11:58:20.369Z,6.70
2017-12-25T12:00:47.823Z,8.20
2017-12-25T12:03:15.279Z,7.67
2017-12-25T12:05:42.731Z,6.93
2017-12-25T12:08:10.190Z,6.70
2017-12-25T12:10:37.658Z,8.33
2017-12-25T12:13:05.105Z,6.87
2017-12-25T12:15:32.550Z,10.27
2017-12-25T12:18:00.059Z,7.37
2017-12-25T12:20:27.503Z,9.03
2017-12-25T12:22:55.734Z,7.80
2017-12-25T12:25:23.175Z,11.37
2017-12-25T12:27:50.635Z,8.30
2017-12-25T12:30:18.133Z,10.00
2017-12-25T12:32:47.999Z,10.60
2017-12-25T12:35:15.450Z,10.97
2017-12-25T12:37:42.902Z,10.53
2017-12-25T12:40:10.382Z,7.77
2017-12-25T12:42:37.874Z,11.73
2017-12-25T12:45:06.091Z,8.60
2017-12-25T12:47:33.549Z,8.50
2017-12-25T12:50:01.004Z,10.17
2017-12-25T12:52:29.434Z,8.60
2017-12-25T12:54:56.878Z,10.70
2017-12-25T12:57:24.338Z,8.60
2017-12-25T12:59:51.789Z,8.97
2017-12-25T13:02:19.240Z,10.13
2017-12-25T13:04:46.709Z,9.03
2017-12-25T13:07:14.178Z,8.07
2017-12-25T13:09:42.410Z,7.90
2017-12-25T13:12:09.855Z,8.17
2017-12-25T13:14:37.306Z,8.17
2017-12-25T13:17:04.758Z,12.13
2017-12-25T13:19:32.231Z,9.37
2017-12-25T13:21:59.674Z,7.10
2017-12-25T13:24:27.886Z,8.50
2017-12-25T13:26:55.425Z,8.00
2017-12-25T13:29:22.884Z,7.30
2017-12-25T13:31:50.358Z,6.83
2017-12-25T13:34:17.814Z,7.70
2017-12-25T13:36:45.262Z,7.63
2017-12-25T13:39:12.727Z,7.10
2017-12-25T13:41:40.406Z,8.87
2017-12-25T13:44:08.630Z,8.17
2017-12-25T13:46:36.088Z,7.83
2017-12-25T13:49:03.558Z,6.93
2017-12-25T13:51:31.833Z,6.80
2017-12-25T13:53:59.517Z,7.50
2017-12-25T13:56:27.051Z,7.27
2017-12-25T13:58:54.504Z,7.83
2017-12-25T14:01:22.004Z,7.37
2017-12-25T14:03:50.308Z,8.07
2017-12-25T14:06:17.799Z,7.40
2017-12-25T14:08:45.243Z,6.83
2017-12-25T14:11:12.686Z,7.30
2017-12-25T14:13:40.137Z,7.87
2017-12-25T14:16:07.604Z,10.20
2017-12-25T14:18:35.050Z,12.13
2017-12-25T14:21:02.515Z,7.33
2017-12-25T14:23:29.962Z,9.50
2017-12-25T14:25:57.422Z,8.23
2017-12-25T14:28:24.863Z,8.40
2017-12-25T14:30:52.335Z,9.30
2017-12-25T14:33:19.791Z,8.17
2017-12-25T14:35:47.237Z,8.23
2017-12-25T14:38:14.671Z,9.50
2017-12-25T14:40:42.887Z,7.93
2017-12-25T14:43:10.330Z,8.10
2017-12-25T14:45:37.787Z,9.00
2017-12-25T14:48:05.244Z,10.10
2017-12-25T14:50:32.703Z,7.70
2017-12-25T14:53:00.150Z,7.80
2017-12-25T14:55:27.660Z,7.57
2017-12-25T14:57:55.026Z,7.23
2017-12-25T15:00:22.480Z,10.30
2017-12-25T15:02:50.694Z,10.00
2017-12-25T15:05:18.153Z,8.50
2017-12-25T15:07:45.592Z,10.73
2017-12-25T15:10:13.044Z,11.57
2017-12-25T15:12:40.487Z,11.10
2017-12-25T15:15:08.704Z,11.13
2017-12-25T15:17:36.151Z,10.13
2017-12-25T15:20:03.606Z,15.23
2017-12-25T15:22:31.056Z,14.87
2017-12-25T15:24:58.508Z,20.00
2017-12-25T15:27:25.938Z,23.30
2017-12-25T15:29:54.166Z,20.00
2017-12-25T15:32:21.625Z,15.90
2017-12-25T15:34:49.081Z,19.20
2017-12-25T15:37:16.538Z,14.60
2017-12-25T15:39:43.992Z,23.30
2017-12-25T15:42:11.450Z,19.07
2017-12-25T15:44:38.894Z,18.10
2017-12-25T15:47:06.347Z,14.83
2017-12-25T15:49:33.791Z,16.27
2017-12-25T15:52:01.250Z,15.13
2017-12-25T15:54:28.706Z,17.57
2017-12-25T15:56:56.168Z,14.10
2017-12-25T15:59:23.618Z,13.57
2017-12-25T16:01:51.074Z,13.00
2017-12-25T16:04:18.526Z,14.13
2017-12-25T16:06:45.982Z,17.03
2017-12-25T16:09:13.427Z,15.80
2017-12-25T16:11:40.926Z,14.97
2017-12-25T16:14:08.328Z,16.17
2017-12-25T16:16:36.538Z,14.70
2017-12-25T16:19:03.982Z,11.63
2017-12-25T16:21:31.434Z,13.07
2017-12-25T16:23:58.878Z,12.90
2017-12-25T16:26:26.326Z,13.97
2017-12-25T16:28:53.779Z,13.07
2017-12-25T16:31:21.230Z,15.53
2017-12-25T16:33:49.447Z,13.47
2017-12-25T16:36:16.932Z,12.93
2017-12-25T16:38:44.375Z,13.90
2017-12-25T16:41:11.838Z,16.27
2017-12-25T16:43:39.294Z,21.50
2017-12-25T16:46:06.746Z,22.77
2017-12-25T16:48:34.213Z,19.40
2017-12-25T16:51:01.657Z,22.03
2017-12-25T16:53:29.136Z,19.00
2017-12-25T16:55:56.592Z,19.53
2017-12-25T16:58:24.040Z,21.20
2017-12-25T17:00:51.495Z,16.73
2017-12-25T17:03:18.978Z,14.43
2017-12-25T17:05:47.189Z,19.60
2017-12-25T17:08:14.647Z,11.03
2017-12-25T17:10:42.119Z,13.43
2017-12-25T17:13:09.591Z,13.07
2017-12-25T17:15:37.031Z,19.20
2017-12-25T17:18:04.498Z,18.10
2017-12-25T17:20:31.946Z,17.03
2017-12-25T17:22:59.403Z,18.93
2017-12-25T17:25:26.863Z,20.40
2017-12-25T17:27:54.322Z,20.23
2017-12-25T17:30:21.770Z,20.47
2017-12-25T17:32:58.615Z,16.00
2017-12-25T17:35:26.070Z,19.33
2017-12-25T17:37:53.519Z,19.37
2017-12-25T17:40:20.967Z,17.93
2017-12-25T17:42:48.419Z,20.77
2017-12-25T17:45:15.870Z,21.00
2017-12-25T17:47:44.093Z,29.33
2017-12-25T17:50:11.542Z,27.17
2017-12-25T17:52:39.013Z,23.90
2017-12-25T17:55:06.468Z,22.20
2017-12-25T17:57:33.915Z,20.30
2017-12-25T18:00:01.367Z,18.73
2017-12-25T18:02:28.825Z,17.87
2017-12-25T18:04:56.288Z,18.67
2017-12-25T18:07:23.746Z,20.67
2017-12-25T18:09:51.216Z,19.60
2017-12-25T18:12:18.672Z,17.67
2017-12-25T18:14:46.139Z,19.33
2017-12-25T18:17:13.591Z,20.80
2017-12-25T18:19:41.039Z,14.90
2017-12-25T18:22:08.491Z,14.63
2017-12-25T18:24:35.947Z,14.73
2017-12-25T18:27:03.403Z,14.77
2017-12-25T18:29:30.857Z,15.03
2017-12-25T18:31:58.303Z,16.60
2017-12-25T18:34:25.759Z,18.00
2017-12-25T18:36:53.211Z,18.93
2017-12-25T18:39:20.676Z,17.23
2017-12-25T18:41:48.122Z,17.40
2017-12-25T18:44:15.586Z,15.80
2017-12-25T18:46:43.043Z,16.87
2017-12-25T18:49:10.496Z,16.17
2017-12-25T18:51:37.951Z,15.83
2017-12-25T18:54:05.430Z,18.43
2017-12-25T18:56:32.871Z,17.70
2017-12-25T18:59:00.356Z,18.20
2017-12-25T19:01:28.579Z,16.80
2017-12-25T19:03:56.035Z,17.20
2017-12-25T19:06:23.514Z,17.67
2017-12-25T19:08:51.267Z,16.17
2017-12-25T19:11:18.731Z,14.50
2017-12-25T19:13:46.176Z,12.97
2017-12-25T19:16:13.639Z,13.97
2017-12-25T19:18:41.100Z,15.20
2017-12-25T19:21:08.610Z,14.80
2017-12-25T19:23:36.826Z,16.10
2017-12-25T19:26:04.313Z,14.93
2017-12-25T19:28:31.756Z,13.80
2017-12-25T19:30:59.210Z,14.20
2017-12-25T19:33:26.663Z,16.83
2017-12-25T19:35:54.181Z,13.57
2017-12-25T19:38:21.626Z,17.83
2017-12-25T19:40:50.007Z,17.27
2017-12-25T19:43:17.514Z,17.63
2017-12-25T19:45:45.016Z,14.90
2017-12-25T19:48:12.467Z,15.50
2017-12-25T19:50:40.694Z,17.23
2017-12-25T19:53:08.136Z,18.50
2017-12-25T19:55:35.647Z,16.73
2017-12-25T19:58:03.866Z,15.13
2017-12-25T20:00:31.378Z,19.87
2017-12-25T20:02:59.702Z,16.47
2017-12-25T20:05:27.290Z,20.83
2017-12-25T20:07:54.834Z,15.90
2017-12-25T20:10:22.432Z,17.67
2017-12-25T20:12:50.767Z,16.67
2017-12-25T20:15:18.374Z,18.10
2017-12-25T20:17:46.675Z,18.53
2017-12-25T20:20:14.540Z,18.37
2017-12-25T20:22:42.066Z,22.33
2017-12-25T20:25:10.346Z,22.33
2017-12-25T20:27:37.867Z,16.27
2017-12-25T20:30:05.371Z,18.60
2017-12-25T20:32:32.856Z,16.33
2017-12-25T20:35:00.366Z,15.30
2017-12-25T20:37:27.875Z,19.07
2017-12-25T20:39:55.361Z,17.53
2017-12-25T20:42:23.232Z,16.77
2017-12-25T20:44:50.772Z,18.67
2017-12-25T20:47:18.351Z,16.90
2017-12-25T20:49:45.844Z,18.50
2017-12-25T20:52:13.357Z,17.80
2017-12-25T20:54:40.853Z,17.53
2017-12-25T20:57:08.365Z,15.57
2017-12-25T20:59:35.827Z,14.47
2017-12-25T21:02:03.424Z,14.90
2017-12-25T21:04:31.733Z,15.17
2017-12-25T21:06:59.326Z,16.30
2017-12-25T21:09:26.844Z,15.17
2017-12-25T21:11:54.442Z,16.23
2017-12-25T21:14:21.979Z,15.50
2017-12-25T21:16:49.585Z,18.03
2017-12-25T21:19:17.888Z,17.53
2017-12-25T21:21:45.491Z,16.73
2017-12-25T21:24:13.019Z,16.53
2017-12-25T21:26:40.631Z,16.13
2017-12-25T21:29:08.987Z,15.57
2017-12-25T21:31:36.513Z,15.43
2017-12-25T21:34:04.294Z,17.07
2017-12-25T21:36:31.848Z,16.23
2017-12-25T21:38:59.454Z,15.77
2017-12-25T21:41:27.014Z,22.33
2017-12-25T21:43:54.585Z,25.23
2017-12-25T21:46:22.167Z,25.30
2017-12-25T21:48:49.709Z,21.70
2017-12-25T21:51:17.286Z,22.80
2017-12-25T21:53:44.832Z,26.50
2017-12-25T21:56:12.406Z,19.50
2017-12-25T21:58:39.943Z,20.50
2017-12-25T22:01:07.528Z,19.27
2017-12-25T22:03:35.076Z,19.10
2017-12-25T22:06:02.630Z,18.43
2017-12-25T22:08:30.168Z,16.63
2017-12-25T22:10:57.699Z,18.57
2017-12-25T22:13:26.054Z,19.63
2017-12-25T22:15:53.634Z,16.77
2017-12-25T22:18:22.016Z,52.50
2017-12-25T22:20:49.970Z,20.70
2017-12-25T22:23:17.622Z,18.97
2017-12-25T22:25:45.123Z,16.20
2017-12-25T22:28:13.402Z,20.07
2017-12-25T22:30:40.897Z,17.30
2017-12-25T22:33:08.571Z,21.00
2017-12-25T22:35:36.182Z,22.60
2017-12-25T22:38:03.755Z,20.30
2017-12-25T22:40:31.282Z,18.53
2017-12-25T22:42:58.842Z,18.33
2017-12-25T22:45:27.171Z,15.53
2017-12-25T22:47:54.763Z,18.17
2017-12-25T22:50:22.351Z,16.50
2017-12-25T22:52:49.911Z,16.10
2017-12-25T22:55:17.490Z,17.17
2017-12-25T22:57:45.060Z,16.10
2017-12-25T23:00:12.644Z,13.33
2017-12-25T23:02:40.189Z,15.47
2017-12-25T23:05:07.765Z,16.27
2017-12-25T23:07:36.160Z,17.43
2017-12-25T23:10:03.767Z,18.17
2017-12-25T23:12:31.334Z,17.20
2017-12-25T23:14:58.949Z,15.63
2017-12-25T23:17:26.542Z,19.20
2017-12-25T23:19:54.127Z,16.63
2017-12-25T23:22:21.719Z,15.60
2017-12-25T23:24:50.117Z,17.17
2017-12-25T23:27:17.686Z,17.10
2017-12-25T23:29:45.232Z,18.70
2017-12-25T23:32:12.793Z,14.87
2017-12-25T23:34:40.399Z,18.23
2017-12-25T23:37:07.976Z,17.80
2017-12-25T23:39:35.552Z,18.97
2017-12-25T23:42:03.145Z,18.03
2017-12-25T23:44:30.707Z,18.37
2017-12-25T23:46:58.812Z,18.40
2017-12-25T23:49:26.345Z,19.00
2017-12-25T23:51:53.901Z,16.20
2017-12-25T23:54:23.246Z,17.90
2017-12-25T23:56:51.597Z,18.20
2017-12-25T23:59:19.213Z,18.97
